sensor_id;sensor_type;location;lat;lon;timestamp;temperature;humidity
4399;DHT22;2213;49.720;7.296;2024-01-15T00:01:46;-2.30;99.90
4399;DHT22;2213;49.720;7.296;2024-01-15T00:04:16;-2.40;99.90
4399;DHT22;2213;49.720;7.296;2024-01-15T00:06:45;-2.30;99.90
4399;DHT22;2213;49.720;7.296;2024-01-15T00:09:14;-2.30;99.90
4399;DHT22;2213;49.720;7.296;2024-01-15T00:11:42;-2.30;99.90
4399;DHT22;2213;49.720;7.296;2024-01-15T00:14:11;-2.30;99.90
4399;DHT22;2213;49.720;7.296;2024-01-15T00:16:41;-2.40;99.90
4399;DHT22;2213;49.720;7.296;2024-01-15T00:19:10;-2.30;99.90
4399;DHT22;2213;49.720;7.296;2024-01-15T00:21:40;-2.50;99.90
4399;DHT22;2213;49.720;7.296;2024-01-15T00:24:09;-2.50;99.90
4399;DHT22;2213;49.720;7.296;2024-01-15T00:26:39;-2.50;99.90
4399;DHT22;2213;49.720;7.296;2024-01-15T00:29:08;-2.50;99.90
4399;DHT22;2213;49.720;7.296;2024-01-15T00:31:37;-2.40;99.90
4399;DHT22;2213;49.720;7.296;2024-01-15T00:34:05;-2.30;99.90
4399;DHT22;2213;49.720;7.296;2024-01-15T00:36:34;-2.30;99.90
4399;DHT22;2213;49.720;7.296;2024-01-15T00:39:04;-2.30;99.90
4399;DHT22;2213;49.720;7.296;2024-01-15T00:41:33;-2.40;99.90
4399;DHT22;2213;49.720;7.296;2024-01-15T00:44:01;-2.30;99.90
4399;DHT22;2213;49.720;7.296;2024-01-15T00:46:30;-2.20;99.90
4399;DHT22;2213;49.720;7.296;2024-01-15T00:48:58;-2.30;99.90
4399;DHT22;2213;49.720;7.296;2024-01-15T00:51:27;-2.20;99.90
4399;DHT22;2213;49.720;7.296;2024-01-15T00:53:56;-2.20;99.90
4399;DHT22;2213;49.720;7.296;2024-01-15T00:56:25;-2.20;99.90
4399;DHT22;2213;49.720;7.296;2024-01-15T00:58:54;-2.30;99.90
4399;DHT22;2213;49.720;7.296;2024-01-15T01:01:22;-2.30;99.90
4399;DHT22;2213;49.720;7.296;2024-01-15T01:03:51;-2.30;99.90
4399;DHT22;2213;49.720;7.296;2024-01-15T01:06:19;-2.20;99.90
4399;DHT22;2213;49.720;7.296;2024-01-15T01:08:48;-2.20;99.90
4399;DHT22;2213;49.720;7.296;2024-01-15T01:11:16;-2.10;99.90
4399;DHT22;2213;49.720;7.296;2024-01-15T01:13:46;-2.10;99.90
4399;DHT22;2213;49.720;7.296;2024-01-15T01:16:15;-2.10;99.90
4399;DHT22;2213;49.720;7.296;2024-01-15T01:18:43;-2.10;99.90
4399;DHT22;2213;49.720;7.296;2024-01-15T01:21:12;-2.00;99.90
4399;DHT22;2213;49.720;7.296;2024-01-15T01:23:41;-2.10;99.90
4399;DHT22;2213;49.720;7.296;2024-01-15T01:26:09;-2.00;99.90
4399;DHT22;2213;49.720;7.296;2024-01-15T01:28:37;-2.00;99.90
4399;DHT22;2213;49.720;7.296;2024-01-15T01:31:07;-2.00;99.90
4399;DHT22;2213;49.720;7.296;2024-01-15T01:33:37;-2.00;99.90
4399;DHT22;2213;49.720;7.296;2024-01-15T01:36:09;-2.00;99.90
4399;DHT22;2213;49.720;7.296;2024-01-15T01:38:39;-2.00;99.90
4399;DHT22;2213;49.720;7.296;2024-01-15T01:41:08;-2.00;99.90
4399;DHT22;2213;49.720;7.296;2024-01-15T01:43:37;-2.00;99.90
4399;DHT22;2213;49.720;7.296;2024-01-15T01:46:07;-2.10;99.90
4399;DHT22;2213;49.720;7.296;2024-01-15T01:48:36;-2.10;99.90
4399;DHT22;2213;49.720;7.296;2024-01-15T01:51:05;-2.10;99.90
4399;DHT22;2213;49.720;7.296;2024-01-15T01:53:35;-2.20;99.90
4399;DHT22;2213;49.720;7.296;2024-01-15T01:56:06;-2.20;99.90
4399;DHT22;2213;49.720;7.296;2024-01-15T01:58:35;-2.20;99.90
4399;DHT22;2213;49.720;7.296;2024-01-15T02:01:04;-2.20;99.90
4399;DHT22;2213;49.720;7.296;2024-01-15T02:03:35;-2.10;99.90
4399;DHT22;2213;49.720;7.296;2024-01-15T02:06:04;-2.10;99.90
4399;DHT22;2213;49.720;7.296;2024-01-15T02:08:33;-2.10;99.90
4399;DHT22;2213;49.720;7.296;2024-01-15T02:11:02;-2.20;99.90
4399;DHT22;2213;49.720;7.296;2024-01-15T02:13:31;-2.10;99.90
4399;DHT22;2213;49.720;7.296;2024-01-15T02:16:00;-2.20;99.90
4399;DHT22;2213;49.720;7.296;2024-01-15T02:18:40;-2.20;99.90
4399;DHT22;2213;49.720;7.296;2024-01-15T02:21:09;-2.20;99.90
4399;DHT22;2213;49.720;7.296;2024-01-15T02:23:39;-2.30;99.90
4399;DHT22;2213;49.720;7.296;2024-01-15T02:26:08;-2.30;99.90
4399;DHT22;2213;49.720;7.296;2024-01-15T02:28:37;-2.30;99.90
4399;DHT22;2213;49.720;7.296;2024-01-15T02:31:05;-2.30;99.90
4399;DHT22;2213;49.720;7.296;2024-01-15T02:33:34;-2.50;99.90
4399;DHT22;2213;49.720;7.296;2024-01-15T02:36:03;-2.40;99.90
4399;DHT22;2213;49.720;7.296;2024-01-15T02:38:32;-2.40;99.90
4399;DHT22;2213;49.720;7.296;2024-01-15T02:41:02;-2.40;99.90
4399;DHT22;2213;49.720;7.296;2024-01-15T02:43:30;-2.50;99.90
4399;DHT22;2213;49.720;7.296;2024-01-15T02:45:58;-2.40;99.90
4399;DHT22;2213;49.720;7.296;2024-01-15T02:48:27;-2.50;99.90
4399;DHT22;2213;49.720;7.296;2024-01-15T02:50:56;-2.50;99.90
4399;DHT22;2213;49.720;7.296;2024-01-15T02:53:24;-2.40;99.90
4399;DHT22;2213;49.720;7.296;2024-01-15T02:55:52;-2.40;99.90
4399;DHT22;2213;49.720;7.296;2024-01-15T02:58:22;-2.50;99.90
4399;DHT22;2213;49.720;7.296;2024-01-15T03:00:51;-2.40;99.90
4399;DHT22;2213;49.720;7.296;2024-01-15T03:03:19;-2.40;99.90
4399;DHT22;2213;49.720;7.296;2024-01-15T03:05:48;-2.40;99.90
4399;DHT22;2213;49.720;7.296;2024-01-15T03:08:16;-2.30;99.90
4399;DHT22;2213;49.720;7.296;2024-01-15T03:10:45;-2.30;99.90
4399;DHT22;2213;49.720;7.296;2024-01-15T03:13:13;-2.40;99.90
4399;DHT22;2213;49.720;7.296;2024-01-15T03:15:43;-2.40;99.90
4399;DHT22;2213;49.720;7.296;2024-01-15T03:18:12;-2.40;99.90
4399;DHT22;2213;49.720;7.296;2024-01-15T03:20:41;-2.40;99.90
4399;DHT22;2213;49.720;7.296;2024-01-15T03:23:09;-2.40;99.90
4399;DHT22;2213;49.720;7.296;2024-01-15T03:25:38;-2.20;99.90
4399;DHT22;2213;49.720;7.296;2024-01-15T03:28:06;-2.20;99.90
4399;DHT22;2213;49.720;7.296;2024-01-15T03:30:34;-2.20;99.90
4399;DHT22;2213;49.720;7.296;2024-01-15T03:33:05;-2.30;99.90
4399;DHT22;2213;49.720;7.296;2024-01-15T03:35:34;-2.30;99.90
4399;DHT22;2213;49.720;7.296;2024-01-15T03:38:02;-2.30;99.90
4399;DHT22;2213;49.720;7.296;2024-01-15T03:40:31;-2.30;99.90
4399;DHT22;2213;49.720;7.296;2024-01-15T03:43:00;-2.30;99.90
4399;DHT22;2213;49.720;7.296;2024-01-15T03:45:28;-2.30;99.90
4399;DHT22;2213;49.720;7.296;2024-01-15T03:47:57;-2.30;99.90
4399;DHT22;2213;49.720;7.296;2024-01-15T03:50:28;-2.30;99.90
4399;DHT22;2213;49.720;7.296;2024-01-15T03:52:56;-2.20;99.90
4399;DHT22;2213;49.720;7.296;2024-01-15T03:55:25;-2.20;99.90
4399;DHT22;2213;49.720;7.296;2024-01-15T03:57:53;-2.20;99.90
4399;DHT22;2213;49.720;7.296;2024-01-15T04:00:22;-2.20;99.90
4399;DHT22;2213;49.720;7.296;2024-01-15T04:02:51;-2.30;99.90
4399;DHT22;2213;49.720;7.296;2024-01-15T04:05:20;-2.30;99.90
4399;DHT22;2213;49.720;7.296;2024-01-15T04:07:50;-2.30;99.90
4399;DHT22;2213;49.720;7.296;2024-01-15T04:10:19;-2.30;99.90
4399;DHT22;2213;49.720;7.296;2024-01-15T04:12:47;-2.20;99.90
4399;DHT22;2213;49.720;7.296;2024-01-15T04:15:16;-2.10;99.90
4399;DHT22;2213;49.720;7.296;2024-01-15T04:17:45;-2.10;99.90
4399;DHT22;2213;49.720;7.296;2024-01-15T04:20:13;-2.10;99.90
4399;DHT22;2213;49.720;7.296;2024-01-15T04:22:43;-2.10;99.90
4399;DHT22;2213;49.720;7.296;2024-01-15T04:25:13;-2.10;99.90
4399;DHT22;2213;49.720;7.296;2024-01-15T04:27:41;-1.90;99.90
4399;DHT22;2213;49.720;7.296;2024-01-15T04:30:11;-1.90;99.90
4399;DHT22;2213;49.720;7.296;2024-01-15T04:32:40;-1.90;99.90
4399;DHT22;2213;49.720;7.296;2024-01-15T04:35:09;-1.90;99.90
4399;DHT22;2213;49.720;7.296;2024-01-15T04:37:37;-2.00;99.90
4399;DHT22;2213;49.720;7.296;2024-01-15T04:40:07;-1.90;99.90
4399;DHT22;2213;49.720;7.296;2024-01-15T04:42:37;-1.90;99.90
4399;DHT22;2213;49.720;7.296;2024-01-15T04:45:06;-1.90;99.90
4399;DHT22;2213;49.720;7.296;2024-01-15T04:47:35;-1.90;99.90
4399;DHT22;2213;49.720;7.296;2024-01-15T04:50:04;-1.90;99.90
4399;DHT22;2213;49.720;7.296;2024-01-15T04:52:33;-1.80;99.90
4399;DHT22;2213;49.720;7.296;2024-01-15T04:55:01;-1.80;99.90
4399;DHT22;2213;49.720;7.296;2024-01-15T04:57:30;-1.80;99.90
4399;DHT22;2213;49.720;7.296;2024-01-15T05:00:00;-1.80;99.90
4399;DHT22;2213;49.720;7.296;2024-01-15T05:02:29;-1.80;99.90
4399;DHT22;2213;49.720;7.296;2024-01-15T05:04:57;-1.80;99.90
4399;DHT22;2213;49.720;7.296;2024-01-15T05:07:26;-1.90;99.90
4399;DHT22;2213;49.720;7.296;2024-01-15T05:09:54;-1.90;99.90
4399;DHT22;2213;49.720;7.296;2024-01-15T05:12:23;-1.80;99.90
4399;DHT22;2213;49.720;7.296;2024-01-15T05:14:51;-1.70;99.90
4399;DHT22;2213;49.720;7.296;2024-01-15T05:17:21;-1.80;99.90
4399;DHT22;2213;49.720;7.296;2024-01-15T05:19:49;-1.70;99.90
4399;DHT22;2213;49.720;7.296;2024-01-15T05:22:18;-1.70;99.90
4399;DHT22;2213;49.720;7.296;2024-01-15T05:24:48;-1.70;99.90
4399;DHT22;2213;49.720;7.296;2024-01-15T05:27:16;-1.80;99.90
4399;DHT22;2213;49.720;7.296;2024-01-15T05:29:45;-1.80;99.90
4399;DHT22;2213;49.720;7.296;2024-01-15T05:32:13;-1.80;99.90
4399;DHT22;2213;49.720;7.296;2024-01-15T05:34:43;-1.80;99.90
4399;DHT22;2213;49.720;7.296;2024-01-15T05:37:12;-1.80;99.90
4399;DHT22;2213;49.720;7.296;2024-01-15T05:39:40;-1.80;99.90
4399;DHT22;2213;49.720;7.296;2024-01-15T05:42:09;-1.80;99.90
4399;DHT22;2213;49.720;7.296;2024-01-15T05:44:37;-1.80;99.90
4399;DHT22;2213;49.720;7.296;2024-01-15T05:47:06;-1.90;99.90
4399;DHT22;2213;49.720;7.296;2024-01-15T05:49:34;-1.80;99.90
4399;DHT22;2213;49.720;7.296;2024-01-15T05:52:05;-1.80;99.90
4399;DHT22;2213;49.720;7.296;2024-01-15T05:54:33;-1.80;99.90
4399;DHT22;2213;49.720;7.296;2024-01-15T05:57:02;-1.80;99.90
4399;DHT22;2213;49.720;7.296;2024-01-15T05:59:30;-1.70;99.90
4399;DHT22;2213;49.720;7.296;2024-01-15T06:02:01;-1.80;99.90
4399;DHT22;2213;49.720;7.296;2024-01-15T06:04:29;-1.70;99.90
4399;DHT22;2213;49.720;7.296;2024-01-15T06:06:58;-1.70;99.90
4399;DHT22;2213;49.720;7.296;2024-01-15T06:09:28;-1.70;99.90
4399;DHT22;2213;49.720;7.296;2024-01-15T06:11:56;-1.60;99.90
4399;DHT22;2213;49.720;7.296;2024-01-15T06:14:25;-1.60;99.90
4399;DHT22;2213;49.720;7.296;2024-01-15T06:16:53;-1.70;99.90
4399;DHT22;2213;49.720;7.296;2024-01-15T06:19:22;-1.60;99.90
4399;DHT22;2213;49.720;7.296;2024-01-15T06:21:50;-1.60;99.90
4399;DHT22;2213;49.720;7.296;2024-01-15T06:24:19;-1.60;99.90
4399;DHT22;2213;49.720;7.296;2024-01-15T06:26:49;-1.50;99.90
4399;DHT22;2213;49.720;7.296;2024-01-15T06:29:18;-1.50;99.90
4399;DHT22;2213;49.720;7.296;2024-01-15T06:31:46;-1.50;99.90
4399;DHT22;2213;49.720;7.296;2024-01-15T06:34:15;-1.50;99.90
4399;DHT22;2213;49.720;7.296;2024-01-15T06:36:44;-1.50;99.90
4399;DHT22;2213;49.720;7.296;2024-01-15T06:39:12;-1.40;99.90
4399;DHT22;2213;49.720;7.296;2024-01-15T06:41:41;-1.50;99.90
4399;DHT22;2213;49.720;7.296;2024-01-15T06:44:13;-1.50;99.90
4399;DHT22;2213;49.720;7.296;2024-01-15T06:46:42;-1.50;99.90
4399;DHT22;2213;49.720;7.296;2024-01-15T06:49:11;-1.50;99.90
4399;DHT22;2213;49.720;7.296;2024-01-15T06:51:40;-1.50;99.90
4399;DHT22;2213;49.720;7.296;2024-01-15T06:54:10;-1.50;99.90
4399;DHT22;2213;49.720;7.296;2024-01-15T06:56:39;-1.40;99.90
4399;DHT22;2213;49.720;7.296;2024-01-15T06:59:07;-1.40;99.90
4399;DHT22;2213;49.720;7.296;2024-01-15T07:01:37;-1.50;99.90
4399;DHT22;2213;49.720;7.296;2024-01-15T07:04:06;-1.40;99.90
4399;DHT22;2213;49.720;7.296;2024-01-15T07:06:35;-1.30;99.90
4399;DHT22;2213;49.720;7.296;2024-01-15T07:09:03;-1.30;99.90
4399;DHT22;2213;49.720;7.296;2024-01-15T07:11:33;-1.40;99.90
4399;DHT22;2213;49.720;7.296;2024-01-15T07:14:01;-1.40;99.90
4399;DHT22;2213;49.720;7.296;2024-01-15T07:16:30;-1.40;99.90
4399;DHT22;2213;49.720;7.296;2024-01-15T07:19:05;-1.50;99.90
4399;DHT22;2213;49.720;7.296;2024-01-15T07:21:34;-1.40;99.90
4399;DHT22;2213;49.720;7.296;2024-01-15T07:24:03;-1.40;99.90
4399;DHT22;2213;49.720;7.296;2024-01-15T07:26:32;-1.30;99.90
4399;DHT22;2213;49.720;7.296;2024-01-15T07:29:01;-1.40;99.90
4399;DHT22;2213;49.720;7.296;2024-01-15T07:31:30;-1.40;99.90
4399;DHT22;2213;49.720;7.296;2024-01-15T07:33:59;-1.30;99.90
4399;DHT22;2213;49.720;7.296;2024-01-15T07:36:29;-1.40;99.90
4399;DHT22;2213;49.720;7.296;2024-01-15T07:38:58;-1.30;99.90
4399;DHT22;2213;49.720;7.296;2024-01-15T07:41:27;-1.50;99.90
4399;DHT22;2213;49.720;7.296;2024-01-15T07:43:55;-1.40;99.90
4399;DHT22;2213;49.720;7.296;2024-01-15T07:46:24;-1.40;99.90
4399;DHT22;2213;49.720;7.296;2024-01-15T07:48:52;-1.30;99.90
4399;DHT22;2213;49.720;7.296;2024-01-15T07:51:23;-1.30;99.90
4399;DHT22;2213;49.720;7.296;2024-01-15T07:53:54;-1.20;99.90
4399;DHT22;2213;49.720;7.296;2024-01-15T07:56:23;-1.30;99.90
4399;DHT22;2213;49.720;7.296;2024-01-15T07:58:51;-1.20;99.90
4399;DHT22;2213;49.720;7.296;2024-01-15T08:01:20;-1.30;99.90
4399;DHT22;2213;49.720;7.296;2024-01-15T08:03:48;-1.40;99.90
4399;DHT22;2213;49.720;7.296;2024-01-15T08:06:17;-1.40;99.90
4399;DHT22;2213;49.720;7.296;2024-01-15T08:08:45;-1.20;99.90
4399;DHT22;2213;49.720;7.296;2024-01-15T08:11:15;-1.30;99.90
4399;DHT22;2213;49.720;7.296;2024-01-15T08:13:44;-1.30;99.90
4399;DHT22;2213;49.720;7.296;2024-01-15T08:16:12;-1.20;99.90
4399;DHT22;2213;49.720;7.296;2024-01-15T08:18:41;-1.20;99.90
4399;DHT22;2213;49.720;7.296;2024-01-15T08:21:11;-1.20;99.90
4399;DHT22;2213;49.720;7.296;2024-01-15T08:23:40;-1.20;99.90
4399;DHT22;2213;49.720;7.296;2024-01-15T08:26:09;-1.10;99.90
4399;DHT22;2213;49.720;7.296;2024-01-15T08:28:39;-1.20;99.90
4399;DHT22;2213;49.720;7.296;2024-01-15T08:31:08;-1.10;99.90
4399;DHT22;2213;49.720;7.296;2024-01-15T08:33:37;-1.10;99.90
4399;DHT22;2213;49.720;7.296;2024-01-15T08:36:06;-1.10;99.90
4399;DHT22;2213;49.720;7.296;2024-01-15T08:38:35;-1.10;99.90
4399;DHT22;2213;49.720;7.296;2024-01-15T08:41:04;-1.20;99.90
4399;DHT22;2213;49.720;7.296;2024-01-15T08:43:32;-1.20;99.90
4399;DHT22;2213;49.720;7.296;2024-01-15T08:46:02;-1.10;99.90
4399;DHT22;2213;49.720;7.296;2024-01-15T08:48:31;-1.10;99.90
4399;DHT22;2213;49.720;7.296;2024-01-15T08:51:00;-1.00;99.90
4399;DHT22;2213;49.720;7.296;2024-01-15T08:53:28;-0.90;99.90
4399;DHT22;2213;49.720;7.296;2024-01-15T08:55:56;-1.00;99.90
4399;DHT22;2213;49.720;7.296;2024-01-15T08:58:25;-1.00;99.90
4399;DHT22;2213;49.720;7.296;2024-01-15T09:00:54;-1.00;99.90
4399;DHT22;2213;49.720;7.296;2024-01-15T09:03:24;-1.00;99.90
4399;DHT22;2213;49.720;7.296;2024-01-15T09:05:53;-1.00;99.90
4399;DHT22;2213;49.720;7.296;2024-01-15T09:08:21;-1.00;99.90
4399;DHT22;2213;49.720;7.296;2024-01-15T09:10:50;-0.90;99.90
4399;DHT22;2213;49.720;7.296;2024-01-15T09:13:18;-0.90;99.90
4399;DHT22;2213;49.720;7.296;2024-01-15T09:15:47;-0.80;99.90
4399;DHT22;2213;49.720;7.296;2024-01-15T09:18:18;-0.80;99.90
4399;DHT22;2213;49.720;7.296;2024-01-15T09:20:48;-0.90;99.90
4399;DHT22;2213;49.720;7.296;2024-01-15T09:23:17;-0.80;99.90
4399;DHT22;2213;49.720;7.296;2024-01-15T09:25:45;-0.90;99.90
4399;DHT22;2213;49.720;7.296;2024-01-15T09:28:14;-0.80;99.90
4399;DHT22;2213;49.720;7.296;2024-01-15T09:30:43;-0.80;99.90
4399;DHT22;2213;49.720;7.296;2024-01-15T09:33:14;-0.90;99.90
4399;DHT22;2213;49.720;7.296;2024-01-15T09:35:43;-0.90;99.90
4399;DHT22;2213;49.720;7.296;2024-01-15T09:38:12;-0.90;99.90
4399;DHT22;2213;49.720;7.296;2024-01-15T09:40:43;-0.80;99.90
4399;DHT22;2213;49.720;7.296;2024-01-15T09:43:14;-0.80;99.90
4399;DHT22;2213;49.720;7.296;2024-01-15T09:45:44;-0.80;99.90
4399;DHT22;2213;49.720;7.296;2024-01-15T09:48:13;-0.90;99.90
4399;DHT22;2213;49.720;7.296;2024-01-15T09:50:42;-0.80;99.90
4399;DHT22;2213;49.720;7.296;2024-01-15T09:53:15;-0.80;99.90
4399;DHT22;2213;49.720;7.296;2024-01-15T09:55:44;-0.70;99.90
4399;DHT22;2213;49.720;7.296;2024-01-15T09:58:13;-0.70;99.90
4399;DHT22;2213;49.720;7.296;2024-01-15T10:00:42;-0.70;99.90
4399;DHT22;2213;49.720;7.296;2024-01-15T10:03:13;-0.60;99.90
4399;DHT22;2213;49.720;7.296;2024-01-15T10:05:42;-0.60;99.90
4399;DHT22;2213;49.720;7.296;2024-01-15T10:08:14;-0.60;99.90
4399;DHT22;2213;49.720;7.296;2024-01-15T10:10:43;-0.60;99.90
4399;DHT22;2213;49.720;7.296;2024-01-15T10:13:11;-0.50;99.90
4399;DHT22;2213;49.720;7.296;2024-01-15T10:15:44;-0.60;99.90
4399;DHT22;2213;49.720;7.296;2024-01-15T10:18:13;-0.60;99.90
4399;DHT22;2213;49.720;7.296;2024-01-15T10:20:42;-0.60;99.90
4399;DHT22;2213;49.720;7.296;2024-01-15T10:23:12;-0.60;99.90
4399;DHT22;2213;49.720;7.296;2024-01-15T10:25:42;-0.60;99.90
4399;DHT22;2213;49.720;7.296;2024-01-15T10:28:10;-0.40;99.90
4399;DHT22;2213;49.720;7.296;2024-01-15T10:30:39;-0.40;99.90
4399;DHT22;2213;49.720;7.296;2024-01-15T10:33:07;-0.40;99.90
4399;DHT22;2213;49.720;7.296;2024-01-15T10:35:36;-0.40;99.90
4399;DHT22;2213;49.720;7.296;2024-01-15T10:38:06;-0.40;99.90
4399;DHT22;2213;49.720;7.296;2024-01-15T10:40:36;-0.40;99.90
4399;DHT22;2213;49.720;7.296;2024-01-15T10:43:04;-0.40;99.90
4399;DHT22;2213;49.720;7.296;2024-01-15T10:45:33;-0.40;99.90
4399;DHT22;2213;49.720;7.296;2024-01-15T10:48:01;-0.30;99.90
4399;DHT22;2213;49.720;7.296;2024-01-15T10:50:32;-0.40;99.90
4399;DHT22;2213;49.720;7.296;2024-01-15T10:53:01;-0.30;99.90
4399;DHT22;2213;49.720;7.296;2024-01-15T10:55:31;-0.40;99.90
4399;DHT22;2213;49.720;7.296;2024-01-15T10:58:03;-0.40;99.90
4399;DHT22;2213;49.720;7.296;2024-01-15T11:00:31;-0.40;99.90
4399;DHT22;2213;49.720;7.296;2024-01-15T11:03:01;-0.30;99.90
4399;DHT22;2213;49.720;7.296;2024-01-15T11:05:33;-0.20;99.90
4399;DHT22;2213;49.720;7.296;2024-01-15T11:08:06;-0.10;99.90
4399;DHT22;2213;49.720;7.296;2024-01-15T11:10:38;-0.20;99.90
4399;DHT22;2213;49.720;7.296;2024-01-15T11:13:10;0.00;99.90
4399;DHT22;2213;49.720;7.296;2024-01-15T11:15:58;-0.20;99.90
4399;DHT22;2213;49.720;7.296;2024-01-15T11:18:28;-0.10;99.90
4399;DHT22;2213;49.720;7.296;2024-01-15T11:21:23;-0.10;99.90
4399;DHT22;2213;49.720;7.296;2024-01-15T11:23:55;0.00;99.90
4399;DHT22;2213;49.720;7.296;2024-01-15T11:26:33;0.00;99.90
4399;DHT22;2213;49.720;7.296;2024-01-15T11:29:06;0.00;99.90
4399;DHT22;2213;49.720;7.296;2024-01-15T11:31:59;0.10;99.90
4399;DHT22;2213;49.720;7.296;2024-01-15T11:34:52;0.10;99.90
4399;DHT22;2213;49.720;7.296;2024-01-15T11:37:22;0.10;99.90
4399;DHT22;2213;49.720;7.296;2024-01-15T11:39:52;0.20;99.90
4399;DHT22;2213;49.720;7.296;2024-01-15T11:42:22;0.20;99.90
4399;DHT22;2213;49.720;7.296;2024-01-15T11:44:52;0.30;99.90
4399;DHT22;2213;49.720;7.296;2024-01-15T11:50:40;0.20;99.90
4399;DHT22;2213;49.720;7.296;2024-01-15T11:53:21;0.30;99.90
4399;DHT22;2213;49.720;7.296;2024-01-15T11:55:58;0.40;99.90
4399;DHT22;2213;49.720;7.296;2024-01-15T11:58:27;0.30;99.90
4399;DHT22;2213;49.720;7.296;2024-01-15T12:00:57;0.50;99.90
4399;DHT22;2213;49.720;7.296;2024-01-15T12:03:27;0.50;99.90
4399;DHT22;2213;49.720;7.296;2024-01-15T12:05:55;0.50;99.90
4399;DHT22;2213;49.720;7.296;2024-01-15T12:08:25;0.60;99.90
4399;DHT22;2213;49.720;7.296;2024-01-15T12:10:54;0.60;99.90
4399;DHT22;2213;49.720;7.296;2024-01-15T12:13:24;0.60;99.90
4399;DHT22;2213;49.720;7.296;2024-01-15T12:15:54;0.60;99.90
4399;DHT22;2213;49.720;7.296;2024-01-15T12:18:24;0.60;99.90
4399;DHT22;2213;49.720;7.296;2024-01-15T12:20:54;0.60;99.90
4399;DHT22;2213;49.720;7.296;2024-01-15T12:23:24;0.50;99.90
4399;DHT22;2213;49.720;7.296;2024-01-15T12:25:54;0.60;99.90
4399;DHT22;2213;49.720;7.296;2024-01-15T12:28:23;0.60;99.90
4399;DHT22;2213;49.720;7.296;2024-01-15T12:30:51;0.60;99.90
4399;DHT22;2213;49.720;7.296;2024-01-15T12:33:20;0.60;99.90
4399;DHT22;2213;49.720;7.296;2024-01-15T12:35:53;0.60;99.90
4399;DHT22;2213;49.720;7.296;2024-01-15T12:38:21;0.60;99.90
4399;DHT22;2213;49.720;7.296;2024-01-15T12:40:50;0.60;99.90
4399;DHT22;2213;49.720;7.296;2024-01-15T12:43:18;0.50;99.90
4399;DHT22;2213;49.720;7.296;2024-01-15T12:45:47;0.60;99.90
4399;DHT22;2213;49.720;7.296;2024-01-15T12:48:16;0.60;99.90
4399;DHT22;2213;49.720;7.296;2024-01-15T12:50:45;0.70;99.90
4399;DHT22;2213;49.720;7.296;2024-01-15T12:53:16;0.70;99.90
4399;DHT22;2213;49.720;7.296;2024-01-15T12:55:45;0.60;99.90
4399;DHT22;2213;49.720;7.296;2024-01-15T12:58:13;0.60;99.90
4399;DHT22;2213;49.720;7.296;2024-01-15T13:00:46;0.70;99.90
4399;DHT22;2213;49.720;7.296;2024-01-15T13:03:15;0.80;99.90
4399;DHT22;2213;49.720;7.296;2024-01-15T13:05:44;0.70;99.90
4399;DHT22;2213;49.720;7.296;2024-01-15T13:08:13;0.70;99.90
4399;DHT22;2213;49.720;7.296;2024-01-15T13:10:43;0.70;99.90
4399;DHT22;2213;49.720;7.296;2024-01-15T13:13:12;0.70;99.90
4399;DHT22;2213;49.720;7.296;2024-01-15T13:15:40;0.60;99.90
4399;DHT22;2213;49.720;7.296;2024-01-15T13:18:09;0.80;99.90
4399;DHT22;2213;49.720;7.296;2024-01-15T13:20:39;0.70;99.90
4399;DHT22;2213;49.720;7.296;2024-01-15T13:23:08;0.80;99.90
4399;DHT22;2213;49.720;7.296;2024-01-15T13:25:38;0.80;99.90
4399;DHT22;2213;49.720;7.296;2024-01-15T13:28:08;0.80;99.90
4399;DHT22;2213;49.720;7.296;2024-01-15T13:30:37;0.90;99.90
4399;DHT22;2213;49.720;7.296;2024-01-15T13:33:05;0.90;99.90
4399;DHT22;2213;49.720;7.296;2024-01-15T13:35:35;0.90;99.90
4399;DHT22;2213;49.720;7.296;2024-01-15T13:38:04;0.90;99.90
4399;DHT22;2213;49.720;7.296;2024-01-15T13:40:32;0.90;99.90
4399;DHT22;2213;49.720;7.296;2024-01-15T13:43:01;0.90;99.90
4399;DHT22;2213;49.720;7.296;2024-01-15T13:45:35;0.80;99.90
4399;DHT22;2213;49.720;7.296;2024-01-15T13:48:05;0.90;99.90
4399;DHT22;2213;49.720;7.296;2024-01-15T13:50:35;0.90;99.90
4399;DHT22;2213;49.720;7.296;2024-01-15T13:53:04;0.90;99.90
4399;DHT22;2213;49.720;7.296;2024-01-15T13:55:32;1.00;99.90
4399;DHT22;2213;49.720;7.296;2024-01-15T13:58:01;0.90;99.90
4399;DHT22;2213;49.720;7.296;2024-01-15T14:00:32;1.00;99.90
4399;DHT22;2213;49.720;7.296;2024-01-15T14:03:03;0.90;99.90
4399;DHT22;2213;49.720;7.296;2024-01-15T14:05:32;1.10;99.90
4399;DHT22;2213;49.720;7.296;2024-01-15T14:08:01;1.00;99.90
4399;DHT22;2213;49.720;7.296;2024-01-15T14:10:30;0.90;99.90
4399;DHT22;2213;49.720;7.296;2024-01-15T14:12:59;1.00;99.90
4399;DHT22;2213;49.720;7.296;2024-01-15T14:15:29;1.10;99.90
4399;DHT22;2213;49.720;7.296;2024-01-15T14:17:57;1.10;99.90
4399;DHT22;2213;49.720;7.296;2024-01-15T14:20:28;1.10;99.90
4399;DHT22;2213;49.720;7.296;2024-01-15T14:22:57;1.10;99.90
4399;DHT22;2213;49.720;7.296;2024-01-15T14:25:26;1.10;99.90
4399;DHT22;2213;49.720;7.296;2024-01-15T14:27:55;1.20;99.90
4399;DHT22;2213;49.720;7.296;2024-01-15T14:30:23;1.10;99.90
4399;DHT22;2213;49.720;7.296;2024-01-15T14:32:52;1.20;99.90
4399;DHT22;2213;49.720;7.296;2024-01-15T14:35:20;1.10;99.90
4399;DHT22;2213;49.720;7.296;2024-01-15T14:37:51;1.10;99.90
4399;DHT22;2213;49.720;7.296;2024-01-15T14:40:19;1.10;99.90
4399;DHT22;2213;49.720;7.296;2024-01-15T14:42:48;1.20;99.90
4399;DHT22;2213;49.720;7.296;2024-01-15T14:45:17;1.10;99.90
4399;DHT22;2213;49.720;7.296;2024-01-15T14:47:45;1.10;99.90
4399;DHT22;2213;49.720;7.296;2024-01-15T14:50:14;1.00;99.90
4399;DHT22;2213;49.720;7.296;2024-01-15T14:52:42;1.10;99.90
4399;DHT22;2213;49.720;7.296;2024-01-15T14:55:13;1.10;99.90
4399;DHT22;2213;49.720;7.296;2024-01-15T14:57:41;1.00;99.90
4399;DHT22;2213;49.720;7.296;2024-01-15T15:00:10;0.90;99.90
4399;DHT22;2213;49.720;7.296;2024-01-15T15:02:40;0.90;99.90
4399;DHT22;2213;49.720;7.296;2024-01-15T15:05:09;0.90;99.90
4399;DHT22;2213;49.720;7.296;2024-01-15T15:07:40;0.90;99.90
4399;DHT22;2213;49.720;7.296;2024-01-15T15:10:09;0.80;99.90
4399;DHT22;2213;49.720;7.296;2024-01-15T15:12:40;0.90;99.90
4399;DHT22;2213;49.720;7.296;2024-01-15T15:15:09;0.80;99.90
4399;DHT22;2213;49.720;7.296;2024-01-15T15:17:46;0.80;99.90
4399;DHT22;2213;49.720;7.296;2024-01-15T15:20:14;0.70;99.90
4399;DHT22;2213;49.720;7.296;2024-01-15T15:22:43;0.70;99.90
4399;DHT22;2213;49.720;7.296;2024-01-15T15:25:12;0.70;99.90
4399;DHT22;2213;49.720;7.296;2024-01-15T15:27:42;0.70;99.90
4399;DHT22;2213;49.720;7.296;2024-01-15T15:30:11;0.70;99.90
4399;DHT22;2213;49.720;7.296;2024-01-15T15:32:40;0.60;99.90
4399;DHT22;2213;49.720;7.296;2024-01-15T15:35:08;0.70;99.90
4399;DHT22;2213;49.720;7.296;2024-01-15T15:37:38;0.70;99.90
4399;DHT22;2213;49.720;7.296;2024-01-15T15:40:07;0.70;99.90
4399;DHT22;2213;49.720;7.296;2024-01-15T15:42:38;0.70;99.90
4399;DHT22;2213;49.720;7.296;2024-01-15T15:45:09;0.60;99.90
4399;DHT22;2213;49.720;7.296;2024-01-15T15:47:37;0.50;99.90
4399;DHT22;2213;49.720;7.296;2024-01-15T15:50:07;0.40;99.90
4399;DHT22;2213;49.720;7.296;2024-01-15T15:52:36;0.50;99.90
4399;DHT22;2213;49.720;7.296;2024-01-15T15:55:05;0.50;99.90
4399;DHT22;2213;49.720;7.296;2024-01-15T15:57:36;0.50;99.90
4399;DHT22;2213;49.720;7.296;2024-01-15T16:00:06;0.50;99.90
4399;DHT22;2213;49.720;7.296;2024-01-15T16:02:38;0.40;99.90
4399;DHT22;2213;49.720;7.296;2024-01-15T16:05:07;0.40;99.90
4399;DHT22;2213;49.720;7.296;2024-01-15T16:07:37;0.50;99.90
4399;DHT22;2213;49.720;7.296;2024-01-15T16:10:07;0.50;99.90
4399;DHT22;2213;49.720;7.296;2024-01-15T16:12:36;0.50;99.90
4399;DHT22;2213;49.720;7.296;2024-01-15T16:15:17;0.50;99.90
4399;DHT22;2213;49.720;7.296;2024-01-15T16:17:48;0.50;99.90
4399;DHT22;2213;49.720;7.296;2024-01-15T16:20:37;0.60;99.90
4399;DHT22;2213;49.720;7.296;2024-01-15T16:23:25;0.60;99.90
4399;DHT22;2213;49.720;7.296;2024-01-15T16:26:14;0.50;99.90